Terminal Aerodrome Forecast
Issued by NWS Albany, NY

Home | Current Version | Previous Version | Text Only | Print | Product List | Glossary On
Versions: 1 2 3 4 5 6 7 8 9 10 11 12 13 14 15 16
000
FTUS41 KALY 031120
TAFPOU
TAF
KPOU 031120Z 0312/0412 18004KT P6SM SKC
     FM031500 20008KT P6SM SCT050 SCT250
     FM032000 21010G20KT P6SM SCT050 SCT100 BKN250
     FM032300 20012G20KT P6SM SCT025 BKN050 PROB30 0323/0403 4SM
      -TSRA BR BKN025CB OVC050
     FM040300 18007KT 5SM BR BKN050 BKN100=

USA.gov is the U.S. government's official web portal to all federal, state and local government web resources and services.